Time;durP1;ratioP1;P1;durP2;ratioP2;P2;SDS_P1;SDS_P2;PMS_P1;PMS_P2;Temp;Humidity;BMP_temperature;BMP_pressure;BME280_temperature;BME280_humidity;BME280_pressure;Samples;Min_cycle;Max_cycle;Signal;HPM_P1;HPM_P2
2022/01/20 00:02:12;;;;;;;8.57;3.13;;;3.90;99.90;;;;;;5135188;28;20897;-50
2022/01/20 00:04:52;;;;;;;10.60;3.50;;;3.90;99.90;;;;;;5124044;29;20541;-51
2022/01/20 00:26:31;;;;;;;16.43;3.30;;;3.60;99.90;;;;;;5144315;28;20468;-51
2022/01/20 00:29:03;;;;;;;14.17;2.53;;;3.70;99.90;;;;;;5147980;28;21011;-49
2022/01/20 00:31:44;;;;;;;19.10;3.83;;;3.60;99.90;;;;;;5131270;28;20445;-50
2022/01/20 00:34:19;;;;;;;16.70;3.77;;;3.70;99.90;;;;;;5135871;28;20428;-50
2022/01/20 00:39:39;;;;;;;15.27;3.60;;;3.70;99.90;;;;;;5147527;28;20429;-52
2022/01/20 00:42:10;;;;;;;14.37;3.07;;;3.70;99.90;;;;;;5133556;28;20464;-52
2022/01/20 00:44:41;;;;;;;23.10;3.33;;;3.80;99.90;;;;;;5129733;28;20197;-49
2022/01/20 00:47:13;;;;;;;21.80;4.90;;;3.70;99.90;;;;;;5149813;28;20206;-51
2022/01/20 00:49:44;;;;;;;14.73;3.90;;;3.60;99.90;;;;;;5129666;28;20425;-49
2022/01/20 00:52:15;;;;;;;19.10;3.53;;;3.80;99.90;;;;;;5148057;28;20448;-51
2022/01/20 00:54:46;;;;;;;19.83;3.00;;;3.80;99.90;;;;;;5134254;28;20425;-50
2022/01/20 00:57:17;;;;;;;9.63;3.93;;;3.80;99.90;;;;;;5151224;28;20221;-51
2022/01/20 00:59:47;;;;;;;17.27;2.90;;;3.80;99.90;;;;;;5151023;28;20185;-49
2022/01/20 01:02:22;;;;;;;18.67;3.87;;;3.70;99.90;;;;;;5129116;28;20204;-51
2022/01/20 01:04:52;;;;;;;15.77;3.47;;;3.70;99.90;;;;;;5129155;28;20260;-50
2022/01/20 01:09:59;;;;;;;19.53;3.70;;;3.60;99.90;;;;;;5144971;28;20190;-49
2022/01/20 01:12:38;;;;;;;13.40;3.60;;;3.50;99.90;;;;;;5131584;28;20468;-52
2022/01/20 01:15:16;;;;;;;15.87;2.53;;;3.50;99.90;;;;;;5149214;28;20267;-52
2022/01/20 01:23:36;;;;;;;23.23;3.20;;;3.30;99.90;;;;;;5149424;28;20934;-49
2022/01/20 01:26:10;;;;;;;27.27;3.17;;;3.30;99.90;;;;;;5147497;28;20441;-50
2022/01/20 01:28:42;;;;;;;18.53;4.00;;;3.30;99.90;;;;;;5149572;28;20456;-50
2022/01/20 01:33:54;;;;;;;27.10;4.00;;;3.40;99.90;;;;;;5149172;28;20429;-50
2022/01/20 01:36:27;;;;;;;18.93;3.23;;;3.40;99.90;;;;;;5117533;28;20815;-51
2022/01/20 01:38:58;;;;;;;19.97;3.20;;;3.30;99.90;;;;;;5131934;28;20437;-51
2022/01/20 01:41:33;;;;;;;15.00;3.17;;;3.20;99.90;;;;;;5142435;28;20461;-50
2022/01/20 01:44:07;;;;;;;22.40;3.40;;;3.20;99.90;;;;;;5148805;28;20181;-51
2022/01/20 01:46:38;;;;;;;11.10;3.47;;;3.10;99.90;;;;;;5148067;28;20429;-50
2022/01/20 01:49:09;;;;;;;17.43;2.73;;;3.00;99.90;;;;;;5148999;28;20470;-51
2022/01/20 01:51:39;;;;;;;24.87;3.83;;;3.00;99.90;;;;;;5151169;28;20441;-52
2022/01/20 01:54:16;;;;;;;17.90;3.17;;;3.00;99.90;;;;;;5136334;28;20186;-50
2022/01/20 01:56:48;;;;;;;17.80;3.60;;;3.00;99.90;;;;;;5150823;28;20255;-49
2022/01/20 01:59:19;;;;;;;10.93;2.70;;;2.90;99.90;;;;;;5147249;28;20524;-48
2022/01/20 02:01:49;;;;;;;11.03;2.97;;;2.90;99.90;;;;;;5145234;28;20908;-48
2022/01/20 02:04:23;;;;;;;11.70;3.30;;;2.90;99.90;;;;;;5146751;28;20209;-50
2022/01/20 02:18:36;;;;;;;24.37;3.60;;;2.70;99.90;;;;;;5147799;28;20538;-50
2022/01/20 02:21:06;;;;;;;13.77;3.10;;;2.70;99.90;;;;;;5148483;28;20464;-50
2022/01/20 02:23:38;;;;;;;22.17;3.50;;;2.80;99.90;;;;;;5148903;28;20507;-49
2022/01/20 02:26:09;;;;;;;33.07;2.80;;;2.70;99.90;;;;;;5128733;28;20211;-50
2022/01/20 02:28:40;;;;;;;15.90;2.53;;;2.70;99.90;;;;;;5147432;28;20964;-50
2022/01/20 02:31:11;;;;;;;16.23;3.77;;;2.70;99.90;;;;;;5146973;28;20491;-50
2022/01/20 02:33:42;;;;;;;18.27;2.83;;;2.60;99.90;;;;;;5126699;29;20493;-50
2022/01/20 02:36:16;;;;;;;18.60;3.50;;;2.60;99.90;;;;;;5131045;28;20461;-49
2022/01/20 02:38:54;;;;;;;8.43;2.43;;;2.60;99.90;;;;;;5131202;28;20444;-53
2022/01/20 02:47:14;;;;;;;12.33;3.00;;;2.50;99.90;;;;;;5147085;28;20911;-49
2022/01/20 02:49:46;;;;;;;12.53;2.80;;;2.50;99.90;;;;;;5152441;28;20465;-52
2022/01/20 02:52:17;;;;;;;16.30;2.70;;;2.50;99.90;;;;;;5122442;28;20280;-48
2022/01/20 02:54:47;;;;;;;13.43;3.00;;;2.50;99.90;;;;;;5136465;28;20580;-51
2022/01/20 02:57:18;;;;;;;12.90;3.27;;;2.50;99.90;;;;;;5147806;28;20197;-51
2022/01/20 02:59:49;;;;;;;13.43;2.77;;;2.50;99.90;;;;;;5147575;28;20244;-49
2022/01/20 03:02:20;;;;;;;12.00;2.17;;;2.50;99.90;;;;;;5141643;28;20837;-50
2022/01/20 03:04:51;;;;;;;16.97;2.73;;;2.40;99.90;;;;;;5148037;28;20177;-49
2022/01/20 03:07:24;;;;;;;24.63;2.90;;;2.40;99.90;;;;;;5127121;28;20206;-50
2022/01/20 03:09:55;;;;;;;32.07;3.80;;;2.30;99.90;;;;;;5142269;28;20992;-50
2022/01/20 03:12:25;;;;;;;13.70;3.50;;;2.30;99.90;;;;;;5147543;28;20572;-50
2022/01/20 03:15:00;;;;;;;11.37;2.67;;;2.30;99.90;;;;;;5132265;28;20564;-50
2022/01/20 03:17:32;;;;;;;11.57;2.73;;;2.40;99.90;;;;;;5132230;28;20303;-52
2022/01/20 03:20:03;;;;;;;11.80;2.40;;;2.40;99.90;;;;;;5148413;28;20424;-52
2022/01/20 03:22:34;;;;;;;20.33;3.20;;;2.40;99.90;;;;;;5148471;28;21036;-50
2022/01/20 03:25:05;;;;;;;10.07;3.10;;;2.50;99.90;;;;;;5142219;28;20480;-50
2022/01/20 03:27:36;;;;;;;11.77;3.20;;;2.60;99.90;;;;;;5146759;28;20225;-49
2022/01/20 03:30:08;;;;;;;10.73;2.93;;;2.60;99.90;;;;;;5132604;28;20922;-52
2022/01/20 03:32:39;;;;;;;5.07;1.80;;;2.70;99.90;;;;;;5151934;28;20189;-50
2022/01/20 03:35:11;;;;;;;11.13;2.23;;;2.70;99.90;;;;;;5151555;28;20778;-51
2022/01/20 03:37:42;;;;;;;17.60;3.33;;;2.70;99.90;;;;;;5151219;28;20480;-50
2022/01/20 03:40:13;;;;;;;13.37;2.23;;;2.60;99.90;;;;;;5152901;28;20448;-51
2022/01/20 03:42:45;;;;;;;15.00;2.60;;;2.50;99.90;;;;;;5129608;28;20230;-51
2022/01/20 03:45:16;;;;;;;26.63;2.90;;;2.50;99.90;;;;;;5151689;28;20995;-51
2022/01/20 03:47:46;;;;;;;18.97;2.80;;;2.40;99.90;;;;;;5150950;28;20292;-51
2022/01/20 03:53:07;;;;;;;11.10;3.00;;;2.30;99.90;;;;;;5150563;28;20185;-51
2022/01/20 03:55:38;;;;;;;16.23;2.67;;;2.40;99.90;;;;;;5149724;28;20766;-52
2022/01/20 03:58:09;;;;;;;12.57;2.73;;;2.40;99.90;;;;;;5148319;28;20194;-49
2022/01/20 04:00:39;;;;;;;15.60;4.50;;;2.50;99.90;;;;;;5151241;28;20201;-51
2022/01/20 04:03:12;;;;;;;20.53;3.50;;;2.50;99.90;;;;;;5142284;28;20232;-50
2022/01/20 04:05:56;;;;;;;9.30;2.97;;;2.60;99.90;;;;;;5133002;28;20708;-50
2022/01/20 04:08:32;;;;;;;9.77;2.67;;;2.60;99.90;;;;;;5149782;28;20425;-51
2022/01/20 04:11:06;;;;;;;21.63;3.53;;;2.70;99.90;;;;;;5149188;28;20887;-50
2022/01/20 04:13:37;;;;;;;20.70;4.03;;;2.70;99.90;;;;;;5148421;28;20896;-50
2022/01/20 04:16:30;;;;;;;27.77;3.77;;;2.70;99.90;;;;;;5150130;28;20456;-52
2022/01/20 04:19:07;;;;;;;22.03;3.30;;;2.80;99.90;;;;;;5145528;28;20220;-52
2022/01/20 04:21:39;;;;;;;22.30;3.70;;;2.80;99.90;;;;;;5145656;28;20463;-50
2022/01/20 04:24:10;;;;;;;8.43;2.07;;;2.90;99.90;;;;;;5137809;28;20515;-49
2022/01/20 04:26:43;;;;;;;15.60;2.93;;;2.90;99.90;;;;;;5145559;28;20871;-51
2022/01/20 04:29:16;;;;;;;12.53;2.53;;;2.80;99.90;;;;;;5124729;28;20914;-50
2022/01/20 04:31:48;;;;;;;5.00;0.97;;;2.40;99.90;;;;;;5145205;28;20441;-52
2022/01/20 04:34:19;;;;;;;9.00;2.17;;;2.10;99.90;;;;;;5127751;28;20532;-52
2022/01/20 04:36:52;;;;;;;6.47;1.53;;;1.80;99.90;;;;;;5145703;28;20564;-51
2022/01/20 04:39:27;;;;;;;4.90;1.53;;;1.70;99.90;;;;;;5144353;28;20272;-52
2022/01/20 04:41:58;;;;;;;6.93;1.13;;;1.50;99.90;;;;;;5145756;28;21023;-49
2022/01/20 04:58:07;;;;;;;10.17;1.83;;;0.90;99.90;;;;;;5138897;28;21029;-50
2022/01/20 05:00:37;;;;;;;13.90;1.63;;;0.90;99.90;;;;;;5145123;28;20444;-49
2022/01/20 05:03:08;;;;;;;6.23;2.10;;;0.80;99.90;;;;;;5140104;28;20531;-50
2022/01/20 05:05:39;;;;;;;5.80;1.60;;;0.80;99.90;;;;;;5120966;28;20428;-49
2022/01/20 05:08:10;;;;;;;3.07;1.60;;;0.80;99.90;;;;;;5148872;28;20190;-52
2022/01/20 05:10:40;;;;;;;12.47;1.93;;;0.80;99.90;;;;;;5141837;28;20458;-51
2022/01/20 05:13:22;;;;;;;14.43;2.40;;;0.90;99.90;;;;;;5145637;28;20566;-53
2022/01/20 05:15:52;;;;;;;9.00;2.60;;;1.00;99.90;;;;;;5135238;28;20178;-52
2022/01/20 05:18:23;;;;;;;7.00;1.73;;;0.90;99.90;;;;;;5146715;28;20433;-52
2022/01/20 05:20:54;;;;;;;12.40;2.13;;;0.90;99.90;;;;;;5149891;28;20178;-52
2022/01/20 05:23:24;;;;;;;15.60;3.13;;;0.90;99.90;;;;;;5129605;28;20244;-51
2022/01/20 05:25:55;;;;;;;4.53;1.80;;;0.90;99.90;;;;;;5105511;28;20193;-50
2022/01/20 05:28:28;;;;;;;3.30;1.17;;;0.90;99.90;;;;;;5149197;28;20174;-51
2022/01/20 05:30:59;;;;;;;8.57;1.93;;;0.90;99.90;;;;;;5150332;28;20182;-50
2022/01/20 05:33:29;;;;;;;7.60;2.50;;;0.90;99.90;;;;;;5149824;28;20478;-52
2022/01/20 05:36:01;;;;;;;11.60;2.23;;;0.90;99.90;;;;;;5150035;28;20205;-50
2022/01/20 05:38:31;;;;;;;10.00;2.30;;;0.90;99.90;;;;;;5132193;28;20247;-49
2022/01/20 05:41:02;;;;;;;20.83;2.27;;;0.90;99.90;;;;;;5148630;28;20441;-49
2022/01/20 05:43:33;;;;;;;5.90;1.70;;;0.90;99.90;;;;;;5144022;28;20221;-50
2022/01/20 05:46:04;;;;;;;23.03;2.17;;;0.80;99.90;;;;;;5148959;28;20550;-52
2022/01/20 05:48:36;;;;;;;5.10;1.53;;;0.80;99.90;;;;;;5148248;28;20194;-51
2022/01/20 05:51:06;;;;;;;12.50;2.10;;;0.90;99.90;;;;;;5132735;28;20935;-49
2022/01/20 05:53:37;;;;;;;10.57;2.30;;;0.90;99.90;;;;;;5133052;28;20437;-51
2022/01/20 05:56:08;;;;;;;16.23;3.20;;;1.10;99.90;;;;;;5133920;28;20201;-50
2022/01/20 05:58:38;;;;;;;5.73;2.33;;;1.10;99.90;;;;;;5147986;28;20181;-49
2022/01/20 06:01:12;;;;;;;8.40;1.40;;;1.10;99.90;;;;;;5134152;28;20183;-50
2022/01/20 06:03:43;;;;;;;9.70;1.77;;;1.20;99.90;;;;;;5128097;28;20188;-49
2022/01/20 06:06:14;;;;;;;9.57;3.20;;;1.20;99.90;;;;;;5129948;28;20567;-51
2022/01/20 06:08:44;;;;;;;2.90;2.10;;;1.30;99.90;;;;;;5146860;28;20554;-50
2022/01/20 06:11:15;;;;;;;7.07;1.90;;;1.40;99.90;;;;;;5133359;28;20202;-49
2022/01/20 06:13:46;;;;;;;7.13;1.70;;;1.40;99.90;;;;;;5131001;28;20206;-51
2022/01/20 06:16:16;;;;;;;9.17;2.00;;;1.40;99.90;;;;;;5148093;28;20213;-49
2022/01/20 06:18:47;;;;;;;2.20;1.00;;;1.50;99.90;;;;;;5128967;28;20189;-50
2022/01/20 06:21:17;;;;;;;4.20;2.10;;;1.50;99.90;;;;;;5147997;28;20256;-51
2022/01/20 06:23:51;;;;;;;3.77;1.20;;;1.50;99.90;;;;;;5137473;28;20217;-48
2022/01/20 06:26:22;;;;;;;8.10;2.43;;;1.40;99.90;;;;;;5126343;28;20203;-49
2022/01/20 06:28:55;;;;;;;20.13;2.20;;;1.30;99.90;;;;;;5142639;28;20763;-51
2022/01/20 06:31:26;;;;;;;4.90;1.57;;;1.20;99.90;;;;;;5146506;28;20289;-51
2022/01/20 06:33:57;;;;;;;15.60;1.53;;;1.00;99.90;;;;;;5133643;28;20572;-51
2022/01/20 06:36:27;;;;;;;3.17;1.30;;;0.90;99.90;;;;;;5145916;28;20206;-52
2022/01/20 06:38:58;;;;;;;12.33;2.33;;;0.90;99.90;;;;;;5128446;28;20229;-51
2022/01/20 06:41:33;;;;;;;13.60;2.20;;;0.90;99.90;;;;;;5140124;28;20229;-51
2022/01/20 06:44:05;;;;;;;9.13;1.77;;;0.90;99.90;;;;;;5142155;28;20173;-50
2022/01/20 06:46:35;;;;;;;7.80;1.43;;;0.90;99.90;;;;;;5125932;28;20442;-50
2022/01/20 06:49:10;;;;;;;5.40;1.30;;;0.90;99.90;;;;;;5141872;28;21069;-50
2022/01/20 06:51:40;;;;;;;7.10;1.70;;;0.80;99.90;;;;;;5135306;28;20185;-50
2022/01/20 06:54:11;;;;;;;10.57;1.70;;;0.90;99.90;;;;;;5141488;28;20446;-51
2022/01/20 06:56:42;;;;;;;9.30;2.33;;;1.00;99.90;;;;;;5127733;28;20205;-51
2022/01/20 06:59:14;;;;;;;6.23;1.53;;;1.00;99.90;;;;;;5119908;28;20196;-50
2022/01/20 07:01:47;;;;;;;6.27;1.40;;;1.00;99.90;;;;;;5118908;28;20205;-50
2022/01/20 07:04:17;;;;;;;10.27;1.80;;;1.00;99.90;;;;;;5142322;28;20429;-50
2022/01/20 07:06:48;;;;;;;4.77;1.23;;;1.10;99.90;;;;;;5141483;28;20458;-50
2022/01/20 07:09:18;;;;;;;2.97;1.47;;;1.00;99.90;;;;;;5136974;28;20434;-50
2022/01/20 07:11:50;;;;;;;12.43;1.20;;;0.90;99.90;;;;;;5120203;28;20182;-49
2022/01/20 07:14:21;;;;;;;3.93;1.60;;;0.70;99.90;;;;;;5139799;28;20205;-50
2022/01/20 07:16:51;;;;;;;6.30;0.80;;;0.40;99.90;;;;;;5141822;28;20470;-50
2022/01/20 07:19:22;;;;;;;1.67;1.43;;;0.20;99.90;;;;;;5118754;28;20295;-50
2022/01/20 07:21:52;;;;;;;6.57;0.83;;;0.00;99.90;;;;;;5136627;28;20675;-51
2022/01/20 07:24:24;;;;;;;4.47;0.93;;;0.00;99.90;;;;;;5122019;28;20207;-50
2022/01/20 07:26:55;;;;;;;2.20;1.23;;;0.00;99.90;;;;;;5140058;28;20292;-51
2022/01/20 07:29:26;;;;;;;8.63;1.50;;;-0.10;99.90;;;;;;5137252;28;21042;-50
2022/01/20 07:32:02;;;;;;;10.30;1.13;;;-0.20;99.90;;;;;;5125693;28;20266;-50
2022/01/20 07:34:34;;;;;;;10.03;2.47;;;-0.10;99.90;;;;;;5126849;28;20554;-51
2022/01/20 07:37:05;;;;;;;4.40;1.93;;;-0.30;99.90;;;;;;5118916;28;20485;-50
2022/01/20 07:39:36;;;;;;;7.93;1.40;;;-0.30;99.90;;;;;;5124855;28;20441;-49
2022/01/20 07:42:06;;;;;;;10.80;2.50;;;-0.30;99.90;;;;;;5142584;28;20457;-49
2022/01/20 07:44:37;;;;;;;12.60;1.80;;;-0.20;99.90;;;;;;5122672;28;20185;-50
2022/01/20 07:47:07;;;;;;;7.70;2.10;;;-0.20;99.90;;;;;;5133618;28;20243;-52
2022/01/20 07:49:38;;;;;;;11.80;2.43;;;-0.10;99.90;;;;;;5138499;28;20635;-51
2022/01/20 07:52:10;;;;;;;8.13;1.63;;;0.00;99.90;;;;;;5143084;28;20287;-50
2022/01/20 07:54:41;;;;;;;10.47;1.67;;;0.10;99.90;;;;;;5144694;28;20174;-50
2022/01/20 07:57:11;;;;;;;9.70;1.40;;;0.30;99.90;;;;;;5121858;28;22554;-50
2022/01/20 07:59:42;;;;;;;11.43;1.93;;;0.40;99.90;;;;;;5125992;28;20244;-48
2022/01/20 08:02:12;;;;;;;10.10;2.00;;;0.40;99.90;;;;;;5141297;28;20295;-50
2022/01/20 08:04:43;;;;;;;14.50;2.23;;;0.50;99.90;;;;;;5139448;28;20212;-51
2022/01/20 08:07:14;;;;;;;12.13;1.90;;;0.50;99.90;;;;;;5141844;28;20265;-50
2022/01/20 08:09:45;;;;;;;6.87;2.00;;;0.70;99.90;;;;;;5142080;28;20182;-50
2022/01/20 08:12:15;;;;;;;12.53;1.70;;;0.80;99.90;;;;;;5142718;28;20549;-51
2022/01/20 08:14:46;;;;;;;13.33;2.07;;;0.90;99.90;;;;;;5134500;28;20432;-52
2022/01/20 08:17:17;;;;;;;7.70;1.93;;;1.00;99.90;;;;;;5126043;28;20694;-50
2022/01/20 08:19:49;;;;;;;7.83;2.20;;;1.10;99.90;;;;;;5140761;28;20196;-51
2022/01/20 08:22:19;;;;;;;11.27;4.00;;;1.40;99.90;;;;;;5136164;28;20271;-50
2022/01/20 08:24:52;;;;;;;18.40;2.90;;;1.50;99.90;;;;;;5123230;28;20441;-49
2022/01/20 08:27:22;;;;;;;9.83;2.03;;;1.70;99.90;;;;;;5122094;28;20196;-50
2022/01/20 08:29:53;;;;;;;11.60;1.70;;;1.70;99.90;;;;;;5138439;28;20422;-50
2022/01/20 08:32:24;;;;;;;7.40;2.03;;;1.70;99.90;;;;;;5123439;28;20618;-51
2022/01/20 08:34:54;;;;;;;9.03;2.17;;;1.60;99.90;;;;;;5119115;28;20197;-52
2022/01/20 08:37:25;;;;;;;7.90;2.40;;;1.60;99.90;;;;;;5135583;28;20296;-50
2022/01/20 08:40:03;;;;;;;7.93;2.07;;;1.50;99.90;;;;;;5139517;28;20196;-51
2022/01/20 08:42:33;;;;;;;23.83;2.80;;;1.40;99.90;;;;;;5134609;28;20559;-51
2022/01/20 08:45:05;;;;;;;15.60;3.33;;;1.30;99.90;;;;;;5127914;28;20514;-51
2022/01/20 08:47:36;;;;;;;10.47;1.83;;;1.30;99.90;;;;;;5143919;28;20519;-51
2022/01/20 08:50:07;;;;;;;10.40;2.90;;;1.40;99.90;;;;;;5130830;28;20443;-50
2022/01/20 08:52:38;;;;;;;3.67;2.10;;;1.40;99.90;;;;;;5139642;28;20574;-48
2022/01/20 08:55:09;;;;;;;8.90;2.57;;;1.40;99.90;;;;;;5142012;28;20507;-50
2022/01/20 08:57:39;;;;;;;16.43;2.77;;;1.50;99.90;;;;;;5140050;28;20220;-51
2022/01/20 09:00:12;;;;;;;4.90;2.23;;;1.40;99.90;;;;;;5127038;28;20269;-52
2022/01/20 09:02:42;;;;;;;17.63;2.97;;;1.50;99.90;;;;;;5141483;28;20290;-49
2022/01/20 09:05:13;;;;;;;7.00;2.20;;;1.50;99.90;;;;;;5118874;28;20449;-51
2022/01/20 09:07:45;;;;;;;9.30;2.40;;;1.70;99.90;;;;;;5145398;28;20701;-50
2022/01/20 09:10:20;;;;;;;9.63;3.13;;;1.80;99.90;;;;;;5124476;28;20198;-50
2022/01/20 09:15:42;;;;;;;9.20;1.90;;;2.20;99.90;;;;;;5147790;28;20787;-51
2022/01/20 09:18:13;;;;;;;15.43;2.53;;;2.30;99.90;;;;;;5142884;28;20444;-51
2022/01/20 09:20:43;;;;;;;9.37;2.73;;;2.20;99.90;;;;;;5110601;28;20197;-51
2022/01/20 09:23:14;;;;;;;12.07;2.67;;;2.20;99.90;;;;;;5125694;28;20292;-50
2022/01/20 09:25:45;;;;;;;14.33;2.97;;;2.20;99.90;;;;;;5130221;28;20499;-51
2022/01/20 09:28:16;;;;;;;13.50;3.23;;;2.10;99.90;;;;;;5127540;28;20186;-50
2022/01/20 09:30:49;;;;;;;5.43;2.03;;;2.10;99.90;;;;;;5126028;28;20668;-51
2022/01/20 09:33:27;;;;;;;9.60;2.43;;;2.10;99.90;;;;;;5140922;28;20446;-52
2022/01/20 09:35:59;;;;;;;11.17;3.17;;;2.00;99.90;;;;;;5139413;28;20497;-49
2022/01/20 09:38:29;;;;;;;14.20;3.30;;;2.10;99.90;;;;;;5129444;28;20599;-50
2022/01/20 09:41:00;;;;;;;13.27;3.90;;;2.10;99.90;;;;;;5144500;28;20539;-50
2022/01/20 09:43:32;;;;;;;8.73;2.37;;;2.00;99.90;;;;;;5145112;28;20197;-51
2022/01/20 09:46:03;;;;;;;15.70;2.63;;;2.10;99.90;;;;;;5146830;28;20941;-52
2022/01/20 09:48:34;;;;;;;13.47;3.10;;;2.00;99.90;;;;;;5145288;28;20784;-51
2022/01/20 09:51:06;;;;;;;10.70;2.77;;;2.00;99.90;;;;;;5127469;28;20436;-51
2022/01/20 09:53:37;;;;;;;14.33;2.40;;;1.90;99.90;;;;;;5144822;28;20467;-49
2022/01/20 09:56:11;;;;;;;13.70;3.37;;;2.00;99.90;;;;;;5141589;28;20977;-52
2022/01/20 09:58:43;;;;;;;10.67;2.57;;;2.10;99.90;;;;;;5147983;28;20439;-50
2022/01/20 10:01:15;;;;;;;9.33;3.80;;;2.00;99.90;;;;;;5111776;28;20432;-50
2022/01/20 10:03:47;;;;;;;13.37;3.20;;;2.10;99.90;;;;;;5109782;28;20623;-50
2022/01/20 10:06:17;;;;;;;7.50;2.60;;;2.20;99.90;;;;;;5137481;28;20490;-51
2022/01/20 10:08:58;;;;;;;9.20;2.30;;;2.20;99.90;;;;;;5126648;28;20953;-52
2022/01/20 10:11:29;;;;;;;17.00;3.43;;;2.20;99.90;;;;;;5145727;28;20212;-50
2022/01/20 10:14:00;;;;;;;14.03;3.03;;;2.30;99.90;;;;;;5130455;28;20422;-52
2022/01/20 10:16:31;;;;;;;7.90;2.33;;;2.40;99.90;;;;;;5157249;23;20681;-48
2022/01/20 10:19:02;;;;;;;11.93;2.70;;;2.50;99.90;;;;;;5126466;28;20804;-48
2022/01/20 10:21:34;;;;;;;14.70;3.37;;;2.40;99.90;;;;;;5138840;28;20468;-49
2022/01/20 10:24:12;;;;;;;12.83;3.10;;;2.40;99.90;;;;;;5140609;28;20187;-48
2022/01/20 10:26:42;;;;;;;20.37;2.87;;;2.40;99.90;;;;;;5139658;28;20458;-50
2022/01/20 10:29:15;;;;;;;20.03;3.33;;;2.30;99.90;;;;;;5137144;28;20434;-49
2022/01/20 10:31:54;;;;;;;13.70;3.10;;;2.30;99.90;;;;;;5124045;28;20210;-49
2022/01/20 10:34:30;;;;;;;25.10;3.50;;;2.30;99.90;;;;;;5131305;28;20466;-50
2022/01/20 10:37:12;;;;;;;12.07;3.10;;;2.30;99.90;;;;;;5124702;28;20507;-49
2022/01/20 10:39:47;;;;;;;10.97;2.93;;;2.30;99.90;;;;;;5087104;29;21017;-49
2022/01/20 10:42:22;;;;;;;14.97;2.73;;;2.40;99.90;;;;;;5121317;28;20524;-49
2022/01/20 10:44:55;;;;;;;12.33;2.90;;;2.50;99.90;;;;;;5119518;28;20445;-48
2022/01/20 10:47:32;;;;;;;17.87;2.97;;;2.50;99.90;;;;;;5105868;28;20523;-51
2022/01/20 10:50:15;;;;;;;14.23;3.30;;;2.40;99.90;;;;;;5122882;28;20451;-50
2022/01/20 10:52:46;;;;;;;12.43;2.53;;;2.40;99.90;;;;;;5123029;28;20945;-51
2022/01/20 10:55:27;;;;;;;10.50;3.10;;;2.20;99.90;;;;;;5111757;28;20441;-47
2022/01/20 10:58:09;;;;;;;10.63;3.33;;;2.20;99.90;;;;;;5124637;28;20209;-50
2022/01/20 11:00:48;;;;;;;17.30;2.90;;;2.10;99.90;;;;;;5124744;28;20452;-49
2022/01/20 11:03:20;;;;;;;11.40;2.57;;;2.10;99.90;;;;;;5109466;28;20476;-50
2022/01/20 11:05:52;;;;;;;20.20;3.47;;;2.30;99.90;;;;;;5113540;28;20938;-49
2022/01/20 11:08:22;;;;;;;15.83;4.53;;;2.40;99.90;;;;;;5119964;28;20545;-51
2022/01/20 11:10:54;;;;;;;24.53;3.43;;;2.50;99.90;;;;;;5116820;28;20445;-51
2022/01/20 11:13:26;;;;;;;11.90;3.37;;;2.60;99.90;;;;;;5094192;28;20190;-48
2022/01/20 11:15:56;;;;;;;11.20;2.70;;;2.60;99.90;;;;;;5119218;28;20446;-51
2022/01/20 11:18:28;;;;;;;9.97;2.70;;;2.50;99.90;;;;;;5118425;28;20985;-50
2022/01/20 11:21:00;;;;;;;6.80;2.27;;;2.60;99.90;;;;;;5119559;28;20245;-51
2022/01/20 11:23:39;;;;;;;8.83;2.80;;;2.50;99.90;;;;;;5126600;28;20950;-49
2022/01/20 11:26:09;;;;;;;9.27;3.87;;;2.50;99.90;;;;;;5128109;28;20444;-50
2022/01/20 11:28:40;;;;;;;10.57;2.73;;;2.50;99.90;;;;;;5137735;28;20450;-50
2022/01/20 11:31:11;;;;;;;16.43;3.30;;;2.50;99.90;;;;;;5122042;28;20187;-49
2022/01/20 11:33:44;;;;;;;9.80;3.20;;;2.60;99.90;;;;;;5124847;28;20175;-50
2022/01/20 11:36:26;;;;;;;18.13;2.67;;;2.80;99.90;;;;;;5094588;28;20460;-50
2022/01/20 11:39:03;;;;;;;14.23;2.90;;;2.80;99.90;;;;;;5119971;28;20445;-49
2022/01/20 11:41:49;;;;;;;20.10;4.70;;;3.00;99.90;;;;;;5107489;28;20648;-49
2022/01/20 11:44:26;;;;;;;18.07;3.30;;;3.20;99.90;;;;;;5105843;28;20433;-50
2022/01/20 11:47:08;;;;;;;21.17;3.47;;;3.20;99.00;;;;;;5116935;28;20728;-50
2022/01/20 11:49:40;;;;;;;10.57;2.30;;;3.20;99.70;;;;;;5114228;28;20612;-50
2022/01/20 11:52:25;;;;;;;12.50;2.83;;;3.40;98.20;;;;;;5105103;28;20465;-50
2022/01/20 11:54:55;;;;;;;29.83;5.87;;;3.50;95.60;;;;;;5101075;28;20450;-50
2022/01/20 11:57:30;;;;;;;23.43;5.43;;;3.40;93.20;;;;;;5112369;28;20808;-49
2022/01/20 12:00:15;;;;;;;14.93;2.73;;;3.30;93.30;;;;;;5115238;28;20586;-49
2022/01/20 12:02:45;;;;;;;14.63;3.07;;;3.30;93.30;;;;;;5098454;28;20564;-50
2022/01/20 12:05:28;;;;;;;19.63;3.10;;;3.20;91.20;;;;;;5100413;28;20442;-49
2022/01/20 12:08:11;;;;;;;15.20;3.90;;;3.10;93.20;;;;;;5097316;28;20237;-50
2022/01/20 12:10:43;;;;;;;12.30;2.60;;;3.20;93.00;;;;;;5096700;29;20430;-51
2022/01/20 12:13:17;;;;;;;11.87;2.50;;;3.20;91.90;;;;;;5096257;28;20464;-50
2022/01/20 12:15:50;;;;;;;6.40;2.30;;;3.10;93.10;;;;;;5106779;29;20473;-50
2022/01/20 12:18:21;;;;;;;10.93;2.83;;;3.10;93.30;;;;;;5098357;29;20473;-49
2022/01/20 12:20:52;;;;;;;10.13;2.50;;;3.10;93.10;;;;;;5123757;28;20806;-51
2022/01/20 12:23:24;;;;;;;12.37;2.00;;;3.20;93.10;;;;;;5101633;28;20206;-53
2022/01/20 12:26:04;;;;;;;9.13;2.47;;;3.20;94.00;;;;;;5111227;28;20494;-49
2022/01/20 12:28:35;;;;;;;7.77;2.37;;;3.30;93.10;;;;;;5097200;29;20520;-49
2022/01/20 12:31:09;;;;;;;8.20;2.50;;;3.20;90.40;;;;;;5117765;28;20434;-49
2022/01/20 12:33:45;;;;;;;8.23;2.33;;;3.40;92.50;;;;;;5125424;28;20835;-48
2022/01/20 12:36:17;;;;;;;18.17;2.80;;;3.40;93.60;;;;;;5103798;29;20497;-49
2022/01/20 12:38:50;;;;;;;7.43;2.00;;;3.40;84.30;;;;;;5130564;28;20499;-51
2022/01/20 12:41:24;;;;;;;5.00;2.10;;;3.40;84.90;;;;;;5120283;28;20449;-50
2022/01/20 12:44:07;;;;;;;11.93;2.70;;;3.40;85.90;;;;;;5126801;28;20442;-50
2022/01/20 12:46:41;;;;;;;18.30;2.73;;;3.30;82.70;;;;;;5118100;28;20480;-49
2022/01/20 12:49:14;;;;;;;7.60;2.23;;;3.20;86.30;;;;;;5126550;28;20933;-49
2022/01/20 12:51:54;;;;;;;9.13;2.00;;;3.10;90.30;;;;;;5108080;29;20560;-48
2022/01/20 12:54:29;;;;;;;3.40;1.40;;;3.10;90.60;;;;;;5113084;28;20441;-51
2022/01/20 12:57:04;;;;;;;13.13;2.17;;;3.00;89.50;;;;;;5119392;28;20491;-48
2022/01/20 12:59:41;;;;;;;11.27;2.47;;;2.90;90.80;;;;;;5120141;28;20464;-49
2022/01/20 13:02:19;;;;;;;5.07;1.40;;;3.10;91.00;;;;;;5126676;28;20560;-49
2022/01/20 13:04:58;;;;;;;9.30;3.03;;;3.10;89.90;;;;;;5102657;28;20437;-50
2022/01/20 13:07:30;;;;;;;7.80;1.70;;;3.30;91.00;;;;;;5117068;28;20469;-48
2022/01/20 13:10:20;;;;;;;9.57;2.50;;;3.40;89.40;;;;;;5104135;28;20446;-47
2022/01/20 13:12:51;;;;;;;13.03;2.80;;;3.60;87.40;;;;;;5119203;28;20441;-49
2022/01/20 13:15:25;;;;;;;15.33;3.90;;;3.60;85.60;;;;;;5120072;28;20508;-50
2022/01/20 13:18:05;;;;;;;14.70;4.20;;;3.50;87.80;;;;;;5096361;28;20833;-50
2022/01/20 13:20:41;;;;;;;8.80;2.50;;;3.60;90.10;;;;;;5125948;28;20448;-50
2022/01/20 13:25:45;;;;;;;14.90;3.23;;;3.50;81.80;;;;;;5120008;28;20442;-48
2022/01/20 13:28:17;;;;;;;9.30;2.70;;;3.40;82.30;;;;;;5114920;28;20473;-49
2022/01/20 13:30:48;;;;;;;12.30;2.77;;;3.30;80.40;;;;;;5117744;28;20211;-50
2022/01/20 13:33:22;;;;;;;11.63;2.63;;;3.20;79.00;;;;;;5105307;29;20454;-50
2022/01/20 13:36:01;;;;;;;14.43;3.27;;;3.00;82.10;;;;;;5120649;28;20453;-49
2022/01/20 13:38:41;;;;;;;11.40;2.67;;;2.90;83.50;;;;;;5114082;28;20810;-48
2022/01/20 13:41:20;;;;;;;7.33;2.80;;;2.80;85.10;;;;;;5115981;28;20459;-49
2022/01/20 13:46:45;;;;;;;19.00;4.50;;;2.60;89.70;;;;;;5119975;28;20489;-50
2022/01/20 13:49:19;;;;;;;17.53;4.23;;;2.50;92.20;;;;;;5118542;28;20429;-49
2022/01/20 13:52:06;;;;;;;20.97;7.87;;;2.50;93.70;;;;;;5100827;28;20450;-49
2022/01/20 13:54:41;;;;;;;12.03;4.70;;;2.40;95.60;;;;;;5111700;28;20461;-49
2022/01/20 13:57:12;;;;;;;9.27;2.70;;;2.40;98.20;;;;;;5124052;28;21003;-50
2022/01/20 13:59:51;;;;;;;11.13;2.77;;;2.40;99.90;;;;;;5126049;28;20449;-49
2022/01/20 14:02:24;;;;;;;9.97;3.07;;;2.30;99.90;;;;;;5099114;28;20264;-51
2022/01/20 14:04:54;;;;;;;8.80;2.33;;;2.20;99.90;;;;;;5119379;28;20441;-49
2022/01/20 14:07:25;;;;;;;12.93;2.03;;;2.10;99.90;;;;;;5108305;29;20458;-50
2022/01/20 14:09:55;;;;;;;16.77;2.17;;;2.00;99.90;;;;;;5116243;28;20210;-50
2022/01/20 14:12:26;;;;;;;14.77;1.93;;;2.00;99.90;;;;;;5123090;28;20547;-51
2022/01/20 14:14:56;;;;;;;5.03;2.10;;;2.00;99.90;;;;;;5119998;28;20635;-51
2022/01/20 14:17:29;;;;;;;11.90;2.40;;;2.10;99.90;;;;;;5118964;28;20402;-50
2022/01/20 14:20:06;;;;;;;12.80;3.37;;;2.10;99.90;;;;;;5116539;28;20183;-51
2022/01/20 14:22:37;;;;;;;12.53;2.60;;;2.10;99.90;;;;;;5113017;29;20533;-50
2022/01/20 14:25:11;;;;;;;9.33;2.70;;;2.20;99.90;;;;;;5114650;29;20469;-50
2022/01/20 14:27:45;;;;;;;16.93;3.10;;;2.30;99.90;;;;;;5107513;28;20468;-50
2022/01/20 14:30:16;;;;;;;5.47;2.30;;;2.50;99.90;;;;;;5125723;29;20426;-50
2022/01/20 14:32:47;;;;;;;9.30;2.53;;;2.60;99.90;;;;;;5121089;28;20485;-51
2022/01/20 14:35:18;;;;;;;3.80;1.60;;;2.60;99.90;;;;;;5133926;28;20976;-49